sensor_id;sensor_type;location;lat;lon;timestamp;P1;durP1;ratioP1;P2;durP2;ratioP2
7199;SDS011;3641;49.082;8.200;2024-01-25T00:00:55;27.27;;;3.45;;
7199;SDS011;3641;49.082;8.200;2024-01-25T00:03:23;21.55;;;4.45;;
7199;SDS011;3641;49.082;8.200;2024-01-25T00:05:49;23.95;;;3.42;;
7199;SDS011;3641;49.082;8.200;2024-01-25T00:08:15;20.77;;;3.67;;
7199;SDS011;3641;49.082;8.200;2024-01-25T00:10:42;21.83;;;3.70;;
7199;SDS011;3641;49.082;8.200;2024-01-25T00:13:08;20.00;;;3.50;;
7199;SDS011;3641;49.082;8.200;2024-01-25T00:15:35;23.50;;;3.60;;
7199;SDS011;3641;49.082;8.200;2024-01-25T00:18:01;18.40;;;3.50;;
7199;SDS011;3641;49.082;8.200;2024-01-25T00:20:29;23.30;;;3.58;;
7199;SDS011;3641;49.082;8.200;2024-01-25T00:22:55;18.92;;;3.95;;
7199;SDS011;3641;49.082;8.200;2024-01-25T00:25:22;20.35;;;4.10;;
7199;SDS011;3641;49.082;8.200;2024-01-25T00:27:48;26.83;;;4.32;;
7199;SDS011;3641;49.082;8.200;2024-01-25T00:30:15;26.02;;;3.70;;
7199;SDS011;3641;49.082;8.200;2024-01-25T00:32:41;19.85;;;3.65;;
7199;SDS011;3641;49.082;8.200;2024-01-25T00:35:08;20.73;;;3.92;;
7199;SDS011;3641;49.082;8.200;2024-01-25T00:37:37;19.73;;;3.30;;
7199;SDS011;3641;49.082;8.200;2024-01-25T00:40:05;23.05;;;4.25;;
7199;SDS011;3641;49.082;8.200;2024-01-25T00:42:33;21.63;;;3.40;;
7199;SDS011;3641;49.082;8.200;2024-01-25T00:45:07;26.70;;;4.05;;
7199;SDS011;3641;49.082;8.200;2024-01-25T00:47:34;20.30;;;3.75;;
7199;SDS011;3641;49.082;8.200;2024-01-25T00:50:01;27.13;;;4.40;;
7199;SDS011;3641;49.082;8.200;2024-01-25T10:14:33;24.20;;;4.05;;
7199;SDS011;3641;49.082;8.200;2024-01-25T10:17:00;26.98;;;4.25;;
7199;SDS011;3641;49.082;8.200;2024-01-25T10:19:26;25.85;;;4.32;;
7199;SDS011;3641;49.082;8.200;2024-01-25T10:21:53;19.23;;;4.32;;
7199;SDS011;3641;49.082;8.200;2024-01-25T10:24:19;22.35;;;3.70;;
7199;SDS011;3641;49.082;8.200;2024-01-25T10:26:46;20.60;;;3.75;;
7199;SDS011;3641;49.082;8.200;2024-01-25T10:29:15;23.20;;;4.50;;
7199;SDS011;3641;49.082;8.200;2024-01-25T10:31:43;17.45;;;3.95;;
7199;SDS011;3641;49.082;8.200;2024-01-25T10:34:11;28.30;;;4.03;;
7199;SDS011;3641;49.082;8.200;2024-01-25T10:36:40;22.75;;;4.03;;
7199;SDS011;3641;49.082;8.200;2024-01-25T10:39:06;24.15;;;3.90;;
7199;SDS011;3641;49.082;8.200;2024-01-25T10:41:34;22.48;;;3.63;;
7199;SDS011;3641;49.082;8.200;2024-01-25T10:44:01;19.58;;;3.58;;
7199;SDS011;3641;49.082;8.200;2024-01-25T10:46:28;32.00;;;4.85;;
7199;SDS011;3641;49.082;8.200;2024-01-25T10:48:57;24.02;;;3.78;;
7199;SDS011;3641;49.082;8.200;2024-01-25T10:51:24;21.23;;;4.18;;
7199;SDS011;3641;49.082;8.200;2024-01-25T10:53:51;17.00;;;4.10;;
7199;SDS011;3641;49.082;8.200;2024-01-25T10:56:20;26.17;;;4.60;;
7199;SDS011;3641;49.082;8.200;2024-01-25T10:58:47;23.73;;;4.85;;
7199;SDS011;3641;49.082;8.200;2024-01-25T11:01:14;21.70;;;4.15;;
7199;SDS011;3641;49.082;8.200;2024-01-25T11:03:42;19.23;;;3.97;;
7199;SDS011;3641;49.082;8.200;2024-01-25T11:06:13;25.00;;;4.65;;
7199;SDS011;3641;49.082;8.200;2024-01-25T11:08:39;24.88;;;4.18;;
7199;SDS011;3641;49.082;8.200;2024-01-25T11:11:07;30.38;;;5.75;;
7199;SDS011;3641;49.082;8.200;2024-01-25T11:13:35;17.98;;;4.70;;
7199;SDS011;3641;49.082;8.200;2024-01-25T11:16:11;25.35;;;4.38;;
7199;SDS011;3641;49.082;8.200;2024-01-25T11:18:47;24.77;;;3.90;;
7199;SDS011;3641;49.082;8.200;2024-01-25T11:21:22;19.40;;;4.93;;
7199;SDS011;3641;49.082;8.200;2024-01-25T11:23:58;25.65;;;4.03;;
7199;SDS011;3641;49.082;8.200;2024-01-25T11:26:25;20.80;;;4.68;;
7199;SDS011;3641;49.082;8.200;2024-01-25T11:28:51;21.95;;;4.85;;
7199;SDS011;3641;49.082;8.200;2024-01-25T11:31:18;16.00;;;3.92;;
7199;SDS011;3641;49.082;8.200;2024-01-25T11:33:45;25.70;;;4.53;;
7199;SDS011;3641;49.082;8.200;2024-01-25T11:36:11;19.25;;;4.10;;
7199;SDS011;3641;49.082;8.200;2024-01-25T11:38:39;23.08;;;4.30;;
7199;SDS011;3641;49.082;8.200;2024-01-25T11:41:05;21.35;;;3.97;;
7199;SDS011;3641;49.082;8.200;2024-01-25T11:43:32;17.95;;;3.63;;
7199;SDS011;3641;49.082;8.200;2024-01-25T11:45:59;21.42;;;4.43;;
7199;SDS011;3641;49.082;8.200;2024-01-25T11:48:26;18.02;;;3.78;;
7199;SDS011;3641;49.082;8.200;2024-01-25T11:50:53;21.75;;;4.18;;
7199;SDS011;3641;49.082;8.200;2024-01-25T11:53:19;17.17;;;3.67;;
7199;SDS011;3641;49.082;8.200;2024-01-25T11:55:47;28.70;;;4.45;;
7199;SDS011;3641;49.082;8.200;2024-01-25T11:58:13;16.52;;;3.88;;
7199;SDS011;3641;49.082;8.200;2024-01-25T12:00:40;16.65;;;3.58;;
7199;SDS011;3641;49.082;8.200;2024-01-25T12:03:07;18.67;;;3.75;;
7199;SDS011;3641;49.082;8.200;2024-01-25T12:05:34;17.45;;;3.45;;
7199;SDS011;3641;49.082;8.200;2024-01-25T12:08:07;24.38;;;4.03;;
7199;SDS011;3641;49.082;8.200;2024-01-25T12:10:34;17.55;;;3.45;;
7199;SDS011;3641;49.082;8.200;2024-01-25T12:13:02;19.30;;;3.95;;
7199;SDS011;3641;49.082;8.200;2024-01-25T12:15:29;20.00;;;3.90;;
7199;SDS011;3641;49.082;8.200;2024-01-25T12:17:58;23.08;;;3.90;;
7199;SDS011;3641;49.082;8.200;2024-01-25T12:20:24;19.40;;;4.22;;
7199;SDS011;3641;49.082;8.200;2024-01-25T12:22:52;18.95;;;3.60;;
7199;SDS011;3641;49.082;8.200;2024-01-25T12:25:19;22.70;;;4.57;;
7199;SDS011;3641;49.082;8.200;2024-01-25T12:27:47;20.15;;;3.60;;
7199;SDS011;3641;49.082;8.200;2024-01-25T12:30:16;20.77;;;3.95;;
7199;SDS011;3641;49.082;8.200;2024-01-25T12:32:42;14.60;;;3.63;;
7199;SDS011;3641;49.082;8.200;2024-01-25T12:35:09;15.75;;;3.30;;
7199;SDS011;3641;49.082;8.200;2024-01-25T12:37:35;23.15;;;4.57;;
7199;SDS011;3641;49.082;8.200;2024-01-25T12:40:02;21.67;;;3.70;;
7199;SDS011;3641;49.082;8.200;2024-01-25T12:42:29;20.27;;;3.40;;
7199;SDS011;3641;49.082;8.200;2024-01-25T12:44:55;24.00;;;4.15;;
7199;SDS011;3641;49.082;8.200;2024-01-25T12:47:23;19.52;;;3.85;;
7199;SDS011;3641;49.082;8.200;2024-01-25T12:49:50;19.88;;;3.70;;
7199;SDS011;3641;49.082;8.200;2024-01-25T12:52:17;22.38;;;4.15;;
7199;SDS011;3641;49.082;8.200;2024-01-25T12:54:43;20.67;;;3.78;;
7199;SDS011;3641;49.082;8.200;2024-01-25T12:57:10;16.92;;;3.75;;
7199;SDS011;3641;49.082;8.200;2024-01-25T12:59:36;19.75;;;3.75;;
7199;SDS011;3641;49.082;8.200;2024-01-25T13:02:03;20.67;;;4.03;;
7199;SDS011;3641;49.082;8.200;2024-01-25T13:04:31;22.27;;;3.55;;
7199;SDS011;3641;49.082;8.200;2024-01-25T13:06:58;21.17;;;3.72;;
7199;SDS011;3641;49.082;8.200;2024-01-25T13:09:24;20.13;;;3.25;;
7199;SDS011;3641;49.082;8.200;2024-01-25T13:11:51;20.85;;;3.45;;
7199;SDS011;3641;49.082;8.200;2024-01-25T13:14:17;15.15;;;3.38;;
7199;SDS011;3641;49.082;8.200;2024-01-25T13:16:44;23.35;;;4.28;;
7199;SDS011;3641;49.082;8.200;2024-01-25T13:19:10;11.75;;;3.30;;
7199;SDS011;3641;49.082;8.200;2024-01-25T13:21:38;21.50;;;4.40;;
7199;SDS011;3641;49.082;8.200;2024-01-25T13:24:05;17.67;;;3.75;;
7199;SDS011;3641;49.082;8.200;2024-01-25T13:26:31;17.90;;;3.42;;
7199;SDS011;3641;49.082;8.200;2024-01-25T13:28:58;20.23;;;3.30;;
7199;SDS011;3641;49.082;8.200;2024-01-25T13:31:24;19.35;;;3.30;;
7199;SDS011;3641;49.082;8.200;2024-01-25T13:33:51;15.38;;;3.17;;
7199;SDS011;3641;49.082;8.200;2024-01-25T13:36:17;20.95;;;3.45;;
7199;SDS011;3641;49.082;8.200;2024-01-25T13:38:45;22.83;;;4.07;;
7199;SDS011;3641;49.082;8.200;2024-01-25T13:41:11;17.88;;;3.33;;
7199;SDS011;3641;49.082;8.200;2024-01-25T13:43:38;17.77;;;3.67;;
7199;SDS011;3641;49.082;8.200;2024-01-25T13:46:04;15.32;;;3.92;;
7199;SDS011;3641;49.082;8.200;2024-01-25T13:48:31;20.40;;;3.47;;
7199;SDS011;3641;49.082;8.200;2024-01-25T13:50:57;18.77;;;3.47;;
7199;SDS011;3641;49.082;8.200;2024-01-25T13:53:23;19.60;;;3.75;;
7199;SDS011;3641;49.082;8.200;2024-01-25T13:55:51;17.77;;;3.83;;
7199;SDS011;3641;49.082;8.200;2024-01-25T13:58:18;15.20;;;3.40;;
7199;SDS011;3641;49.082;8.200;2024-01-25T14:00:44;15.93;;;3.25;;
7199;SDS011;3641;49.082;8.200;2024-01-25T14:03:11;21.27;;;3.95;;
7199;SDS011;3641;49.082;8.200;2024-01-25T14:05:37;14.93;;;3.20;;
7199;SDS011;3641;49.082;8.200;2024-01-25T14:08:03;17.35;;;3.20;;
7199;SDS011;3641;49.082;8.200;2024-01-25T14:10:30;18.65;;;3.10;;
7199;SDS011;3641;49.082;8.200;2024-01-25T14:13:00;17.52;;;3.55;;
7199;SDS011;3641;49.082;8.200;2024-01-25T14:15:26;16.23;;;3.40;;
7199;SDS011;3641;49.082;8.200;2024-01-25T14:17:53;17.92;;;3.58;;
7199;SDS011;3641;49.082;8.200;2024-01-25T14:20:19;14.23;;;3.97;;
7199;SDS011;3641;49.082;8.200;2024-01-25T14:22:47;13.38;;;3.10;;
7199;SDS011;3641;49.082;8.200;2024-01-25T14:25:14;16.73;;;3.33;;
7199;SDS011;3641;49.082;8.200;2024-01-25T14:27:41;14.43;;;3.40;;
7199;SDS011;3641;49.082;8.200;2024-01-25T14:30:10;17.77;;;3.58;;
7199;SDS011;3641;49.082;8.200;2024-01-25T14:32:37;21.48;;;3.42;;
7199;SDS011;3641;49.082;8.200;2024-01-25T14:35:03;18.50;;;3.85;;
7199;SDS011;3641;49.082;8.200;2024-01-25T14:37:30;16.33;;;3.65;;
7199;SDS011;3641;49.082;8.200;2024-01-25T14:39:57;14.98;;;3.85;;
7199;SDS011;3641;49.082;8.200;2024-01-25T14:42:23;13.85;;;3.00;;
7199;SDS011;3641;49.082;8.200;2024-01-25T14:44:50;15.77;;;3.55;;
7199;SDS011;3641;49.082;8.200;2024-01-25T14:47:17;14.13;;;3.13;;
7199;SDS011;3641;49.082;8.200;2024-01-25T14:49:47;19.92;;;3.45;;
7199;SDS011;3641;49.082;8.200;2024-01-25T14:52:13;16.65;;;2.90;;
7199;SDS011;3641;49.082;8.200;2024-01-25T14:54:40;17.75;;;3.90;;
7199;SDS011;3641;49.082;8.200;2024-01-25T14:57:06;14.80;;;3.33;;
7199;SDS011;3641;49.082;8.200;2024-01-25T14:59:33;15.18;;;3.58;;
7199;SDS011;3641;49.082;8.200;2024-01-25T15:01:59;9.48;;;2.78;;
7199;SDS011;3641;49.082;8.200;2024-01-25T15:04:27;16.70;;;4.75;;
7199;SDS011;3641;49.082;8.200;2024-01-25T15:06:54;16.92;;;3.28;;
7199;SDS011;3641;49.082;8.200;2024-01-25T15:09:21;16.20;;;3.95;;
7199;SDS011;3641;49.082;8.200;2024-01-25T15:11:47;13.73;;;3.42;;
7199;SDS011;3641;49.082;8.200;2024-01-25T15:14:14;12.75;;;3.05;;
7199;SDS011;3641;49.082;8.200;2024-01-25T15:16:40;14.38;;;3.72;;
7199;SDS011;3641;49.082;8.200;2024-01-25T15:19:07;22.88;;;5.00;;
7199;SDS011;3641;49.082;8.200;2024-01-25T15:21:35;16.60;;;3.53;;
7199;SDS011;3641;49.082;8.200;2024-01-25T15:24:01;18.30;;;3.55;;
7199;SDS011;3641;49.082;8.200;2024-01-25T15:26:28;16.30;;;3.78;;
7199;SDS011;3641;49.082;8.200;2024-01-25T15:28:55;14.70;;;4.03;;
7199;SDS011;3641;49.082;8.200;2024-01-25T15:31:21;17.27;;;3.40;;
7199;SDS011;3641;49.082;8.200;2024-01-25T15:33:48;12.77;;;3.38;;
7199;SDS011;3641;49.082;8.200;2024-01-25T15:36:14;18.30;;;3.58;;
7199;SDS011;3641;49.082;8.200;2024-01-25T15:38:43;12.13;;;3.00;;
7199;SDS011;3641;49.082;8.200;2024-01-25T15:41:10;13.18;;;2.90;;
7199;SDS011;3641;49.082;8.200;2024-01-25T15:43:36;11.82;;;3.67;;
7199;SDS011;3641;49.082;8.200;2024-01-25T15:46:04;13.35;;;3.60;;
7199;SDS011;3641;49.082;8.200;2024-01-25T15:48:31;16.92;;;4.05;;
7199;SDS011;3641;49.082;8.200;2024-01-25T15:50:57;16.75;;;5.13;;
7199;SDS011;3641;49.082;8.200;2024-01-25T15:53:24;22.90;;;6.82;;
7199;SDS011;3641;49.082;8.200;2024-01-25T15:55:51;16.17;;;6.15;;
7199;SDS011;3641;49.082;8.200;2024-01-25T15:58:18;14.45;;;6.47;;
7199;SDS011;3641;49.082;8.200;2024-01-25T16:00:44;11.30;;;3.60;;
7199;SDS011;3641;49.082;8.200;2024-01-25T16:03:11;8.15;;;3.55;;
7199;SDS011;3641;49.082;8.200;2024-01-25T16:05:37;12.93;;;3.90;;
7199;SDS011;3641;49.082;8.200;2024-01-25T16:08:04;11.55;;;3.53;;
7199;SDS011;3641;49.082;8.200;2024-01-25T16:10:30;9.73;;;3.35;;
7199;SDS011;3641;49.082;8.200;2024-01-25T16:12:58;11.57;;;3.70;;
7199;SDS011;3641;49.082;8.200;2024-01-25T16:15:24;11.60;;;3.25;;
7199;SDS011;3641;49.082;8.200;2024-01-25T16:17:53;7.28;;;2.88;;
7199;SDS011;3641;49.082;8.200;2024-01-25T16:20:19;9.73;;;3.10;;
7199;SDS011;3641;49.082;8.200;2024-01-25T16:25:23;10.00;;;3.58;;
7199;SDS011;3641;49.082;8.200;2024-01-25T16:27:50;8.18;;;3.40;;
7199;SDS011;3641;49.082;8.200;2024-01-25T16:30:18;8.57;;;3.00;;
7199;SDS011;3641;49.082;8.200;2024-01-25T16:32:44;7.18;;;2.67;;
7199;SDS011;3641;49.082;8.200;2024-01-25T16:35:11;11.40;;;3.47;;
7199;SDS011;3641;49.082;8.200;2024-01-25T16:37:37;9.65;;;3.70;;
7199;SDS011;3641;49.082;8.200;2024-01-25T16:40:04;8.73;;;4.28;;
7199;SDS011;3641;49.082;8.200;2024-01-25T16:42:31;11.52;;;4.40;;
7199;SDS011;3641;49.082;8.200;2024-01-25T16:44:58;11.52;;;4.40;;
7199;SDS011;3641;49.082;8.200;2024-01-25T16:47:26;10.35;;;4.38;;
7199;SDS011;3641;49.082;8.200;2024-01-25T16:49:52;9.88;;;3.65;;
7199;SDS011;3641;49.082;8.200;2024-01-25T16:52:19;8.20;;;4.40;;
7199;SDS011;3641;49.082;8.200;2024-01-25T16:54:45;9.70;;;4.43;;
7199;SDS011;3641;49.082;8.200;2024-01-25T16:57:12;8.85;;;5.43;;
7199;SDS011;3641;49.082;8.200;2024-01-25T16:59:38;9.60;;;5.07;;
7199;SDS011;3641;49.082;8.200;2024-01-25T17:02:05;13.13;;;6.20;;
7199;SDS011;3641;49.082;8.200;2024-01-25T17:04:33;13.50;;;6.30;;
7199;SDS011;3641;49.082;8.200;2024-01-25T17:06:59;12.02;;;6.38;;
7199;SDS011;3641;49.082;8.200;2024-01-25T17:09:25;12.30;;;6.07;;
7199;SDS011;3641;49.082;8.200;2024-01-25T17:11:52;11.80;;;6.28;;
7199;SDS011;3641;49.082;8.200;2024-01-25T17:14:19;12.18;;;6.13;;
7199;SDS011;3641;49.082;8.200;2024-01-25T17:16:45;11.60;;;6.10;;
7199;SDS011;3641;49.082;8.200;2024-01-25T17:19:11;10.02;;;6.22;;
7199;SDS011;3641;49.082;8.200;2024-01-25T17:21:39;13.00;;;6.95;;
7199;SDS011;3641;49.082;8.200;2024-01-25T17:24:06;12.40;;;7.05;;
7199;SDS011;3641;49.082;8.200;2024-01-25T17:26:32;12.32;;;7.22;;
7199;SDS011;3641;49.082;8.200;2024-01-25T17:28:59;13.55;;;7.72;;
7199;SDS011;3641;49.082;8.200;2024-01-25T17:31:26;15.45;;;7.20;;
7199;SDS011;3641;49.082;8.200;2024-01-25T17:33:52;16.80;;;7.95;;
7199;SDS011;3641;49.082;8.200;2024-01-25T17:36:18;15.48;;;7.63;;
7199;SDS011;3641;49.082;8.200;2024-01-25T17:38:46;13.10;;;7.65;;
7199;SDS011;3641;49.082;8.200;2024-01-25T17:41:13;16.58;;;8.18;;
7199;SDS011;3641;49.082;8.200;2024-01-25T17:43:40;15.13;;;7.88;;
7199;SDS011;3641;49.082;8.200;2024-01-25T17:46:06;18.23;;;8.45;;
7199;SDS011;3641;49.082;8.200;2024-01-25T17:48:32;14.63;;;8.18;;
7199;SDS011;3641;49.082;8.200;2024-01-25T17:51:00;16.80;;;8.20;;
7199;SDS011;3641;49.082;8.200;2024-01-25T17:53:26;15.43;;;8.15;;
7199;SDS011;3641;49.082;8.200;2024-01-25T17:55:54;18.80;;;8.85;;
7199;SDS011;3641;49.082;8.200;2024-01-25T17:58:20;17.48;;;8.80;;
7199;SDS011;3641;49.082;8.200;2024-01-25T18:00:47;19.65;;;9.50;;
7199;SDS011;3641;49.082;8.200;2024-01-25T18:03:13;18.95;;;9.73;;
7199;SDS011;3641;49.082;8.200;2024-01-25T18:05:40;19.52;;;9.88;;
7199;SDS011;3641;49.082;8.200;2024-01-25T18:08:06;20.63;;;10.25;;
7199;SDS011;3641;49.082;8.200;2024-01-25T18:10:33;18.13;;;10.40;;
7199;SDS011;3641;49.082;8.200;2024-01-25T18:13:00;17.83;;;9.43;;
7199;SDS011;3641;49.082;8.200;2024-01-25T18:15:27;21.30;;;9.95;;
7199;SDS011;3641;49.082;8.200;2024-01-25T18:17:54;22.70;;;11.32;;
7199;SDS011;3641;49.082;8.200;2024-01-25T18:20:20;25.48;;;13.50;;
7199;SDS011;3641;49.082;8.200;2024-01-25T18:22:46;32.13;;;14.13;;
7199;SDS011;3641;49.082;8.200;2024-01-25T18:25:13;29.33;;;14.90;;
7199;SDS011;3641;49.082;8.200;2024-01-25T18:27:39;28.00;;;13.48;;
7199;SDS011;3641;49.082;8.200;2024-01-25T18:30:09;30.80;;;13.15;;
7199;SDS011;3641;49.082;8.200;2024-01-25T18:32:35;29.05;;;13.55;;
7199;SDS011;3641;49.082;8.200;2024-01-25T18:35:02;28.48;;;12.88;;
7199;SDS011;3641;49.082;8.200;2024-01-25T18:37:29;26.80;;;12.82;;
7199;SDS011;3641;49.082;8.200;2024-01-25T18:39:55;29.00;;;11.98;;
7199;SDS011;3641;49.082;8.200;2024-01-25T18:42:22;28.83;;;12.57;;
7199;SDS011;3641;49.082;8.200;2024-01-25T18:44:48;30.13;;;12.65;;
7199;SDS011;3641;49.082;8.200;2024-01-25T18:47:16;28.75;;;13.07;;
7199;SDS011;3641;49.082;8.200;2024-01-25T18:49:42;33.40;;;13.85;;
7199;SDS011;3641;49.082;8.200;2024-01-25T18:52:08;35.58;;;14.57;;
7199;SDS011;3641;49.082;8.200;2024-01-25T18:54:35;36.85;;;14.80;;
7199;SDS011;3641;49.082;8.200;2024-01-25T18:57:02;30.27;;;13.15;;
7199;SDS011;3641;49.082;8.200;2024-01-25T18:59:29;30.17;;;12.82;;
7199;SDS011;3641;49.082;8.200;2024-01-25T19:01:56;31.35;;;13.93;;
7199;SDS011;3641;49.082;8.200;2024-01-25T19:04:24;25.67;;;12.05;;
7199;SDS011;3641;49.082;8.200;2024-01-25T19:06:52;27.60;;;12.05;;
7199;SDS011;3641;49.082;8.200;2024-01-25T19:09:20;31.30;;;13.48;;
7199;SDS011;3641;49.082;8.200;2024-01-25T19:11:47;30.95;;;12.65;;
7199;SDS011;3641;49.082;8.200;2024-01-25T19:14:14;28.20;;;12.13;;
7199;SDS011;3641;49.082;8.200;2024-01-25T19:16:40;27.83;;;11.93;;
7199;SDS011;3641;49.082;8.200;2024-01-25T19:19:08;25.13;;;11.35;;
7199;SDS011;3641;49.082;8.200;2024-01-25T19:21:35;27.13;;;11.43;;
7199;SDS011;3641;49.082;8.200;2024-01-25T19:24:02;25.92;;;11.35;;
7199;SDS011;3641;49.082;8.200;2024-01-25T19:26:29;26.55;;;11.75;;
7199;SDS011;3641;49.082;8.200;2024-01-25T19:28:56;25.10;;;11.18;;
7199;SDS011;3641;49.082;8.200;2024-01-25T19:31:22;24.75;;;11.52;;
7199;SDS011;3641;49.082;8.200;2024-01-25T19:33:50;26.38;;;11.90;;
7199;SDS011;3641;49.082;8.200;2024-01-25T19:36:16;28.35;;;12.88;;
7199;SDS011;3641;49.082;8.200;2024-01-25T19:38:44;28.23;;;13.23;;
7199;SDS011;3641;49.082;8.200;2024-01-25T19:41:10;29.58;;;14.88;;
7199;SDS011;3641;49.082;8.200;2024-01-25T19:43:37;29.20;;;13.43;;
7199;SDS011;3641;49.082;8.200;2024-01-25T19:46:03;27.67;;;13.32;;
7199;SDS011;3641;49.082;8.200;2024-01-25T19:48:30;32.70;;;14.57;;
7199;SDS011;3641;49.082;8.200;2024-01-25T19:50:57;30.88;;;13.80;;
7199;SDS011;3641;49.082;8.200;2024-01-25T19:53:23;34.28;;;14.98;;
7199;SDS011;3641;49.082;8.200;2024-01-25T19:55:51;32.72;;;13.93;;
7199;SDS011;3641;49.082;8.200;2024-01-25T19:58:19;28.80;;;13.45;;
7199;SDS011;3641;49.082;8.200;2024-01-25T20:00:46;31.08;;;14.35;;
7199;SDS011;3641;49.082;8.200;2024-01-25T20:03:13;31.50;;;13.73;;
7199;SDS011;3641;49.082;8.200;2024-01-25T20:05:40;30.25;;;14.63;;
7199;SDS011;3641;49.082;8.200;2024-01-25T20:08:07;31.35;;;13.70;;
7199;SDS011;3641;49.082;8.200;2024-01-25T20:10:35;26.90;;;12.45;;
7199;SDS011;3641;49.082;8.200;2024-01-25T20:13:03;27.80;;;13.27;;
7199;SDS011;3641;49.082;8.200;2024-01-25T20:15:29;29.75;;;13.68;;
7199;SDS011;3641;49.082;8.200;2024-01-25T20:17:55;29.15;;;14.10;;
7199;SDS011;3641;49.082;8.200;2024-01-25T20:20:22;30.50;;;13.90;;
7199;SDS011;3641;49.082;8.200;2024-01-25T20:22:49;31.75;;;15.30;;
7199;SDS011;3641;49.082;8.200;2024-01-25T20:25:15;27.98;;;14.52;;
7199;SDS011;3641;49.082;8.200;2024-01-25T20:27:42;29.15;;;14.63;;
7199;SDS011;3641;49.082;8.200;2024-01-25T20:30:10;33.05;;;15.07;;
7199;SDS011;3641;49.082;8.200;2024-01-25T20:32:37;34.17;;;16.00;;
7199;SDS011;3641;49.082;8.200;2024-01-25T20:35:03;33.28;;;15.93;;
7199;SDS011;3641;49.082;8.200;2024-01-25T20:37:30;31.02;;;15.38;;
7199;SDS011;3641;49.082;8.200;2024-01-25T20:39:56;37.65;;;17.70;;
7199;SDS011;3641;49.082;8.200;2024-01-25T20:42:23;33.47;;;16.40;;
7199;SDS011;3641;49.082;8.200;2024-01-25T20:44:49;33.13;;;17.42;;
7199;SDS011;3641;49.082;8.200;2024-01-25T20:47:17;36.13;;;17.67;;
7199;SDS011;3641;49.082;8.200;2024-01-25T20:49:43;35.05;;;17.15;;
7199;SDS011;3641;49.082;8.200;2024-01-25T20:52:10;35.42;;;18.27;;
7199;SDS011;3641;49.082;8.200;2024-01-25T20:54:37;35.45;;;18.08;;
7199;SDS011;3641;49.082;8.200;2024-01-25T20:57:04;38.72;;;18.35;;
7199;SDS011;3641;49.082;8.200;2024-01-25T20:59:30;33.45;;;16.98;;
7199;SDS011;3641;49.082;8.200;2024-01-25T21:01:57;32.78;;;17.85;;
7199;SDS011;3641;49.082;8.200;2024-01-25T21:04:26;38.83;;;20.10;;
7199;SDS011;3641;49.082;8.200;2024-01-25T21:06:53;33.42;;;17.75;;
7199;SDS011;3641;49.082;8.200;2024-01-25T21:09:20;36.83;;;18.80;;
7199;SDS011;3641;49.082;8.200;2024-01-25T21:11:47;37.83;;;19.45;;
7199;SDS011;3641;49.082;8.200;2024-01-25T21:14:14;43.42;;;18.95;;
7199;SDS011;3641;49.082;8.200;2024-01-25T21:16:40;43.63;;;20.40;;
7199;SDS011;3641;49.082;8.200;2024-01-25T21:19:07;38.30;;;18.77;;
7199;SDS011;3641;49.082;8.200;2024-01-25T21:21:34;41.45;;;20.80;;
7199;SDS011;3641;49.082;8.200;2024-01-25T21:24:01;39.50;;;20.50;;
7199;SDS011;3641;49.082;8.200;2024-01-25T21:26:27;39.75;;;19.85;;
7199;SDS011;3641;49.082;8.200;2024-01-25T21:28:54;43.95;;;21.35;;
7199;SDS011;3641;49.082;8.200;2024-01-25T21:31:20;48.63;;;23.63;;
7199;SDS011;3641;49.082;8.200;2024-01-25T21:33:47;47.55;;;23.67;;
7199;SDS011;3641;49.082;8.200;2024-01-25T21:36:14;49.00;;;24.75;;
7199;SDS011;3641;49.082;8.200;2024-01-25T21:38:42;43.30;;;21.90;;
7199;SDS011;3641;49.082;8.200;2024-01-25T21:41:08;47.28;;;22.50;;
7199;SDS011;3641;49.082;8.200;2024-01-25T21:43:34;45.53;;;21.92;;
7199;SDS011;3641;49.082;8.200;2024-01-25T21:46:01;46.53;;;22.80;;
7199;SDS011;3641;49.082;8.200;2024-01-25T21:48:27;46.60;;;22.15;;
7199;SDS011;3641;49.082;8.200;2024-01-25T21:50:54;42.72;;;21.60;;
7199;SDS011;3641;49.082;8.200;2024-01-25T21:53:20;43.72;;;22.58;;
7199;SDS011;3641;49.082;8.200;2024-01-25T21:55:48;43.45;;;22.10;;
7199;SDS011;3641;49.082;8.200;2024-01-25T21:58:14;44.28;;;22.90;;
7199;SDS011;3641;49.082;8.200;2024-01-25T22:00:41;42.05;;;21.92;;
7199;SDS011;3641;49.082;8.200;2024-01-25T22:03:08;48.10;;;22.30;;
7199;SDS011;3641;49.082;8.200;2024-01-25T22:05:34;44.20;;;21.92;;
7199;SDS011;3641;49.082;8.200;2024-01-25T22:08:00;40.55;;;21.98;;
7199;SDS011;3641;49.082;8.200;2024-01-25T22:10:27;45.70;;;23.30;;
7199;SDS011;3641;49.082;8.200;2024-01-25T22:12:55;47.25;;;23.05;;
7199;SDS011;3641;49.082;8.200;2024-01-25T22:15:21;47.42;;;24.35;;
7199;SDS011;3641;49.082;8.200;2024-01-25T22:17:48;45.95;;;23.52;;
7199;SDS011;3641;49.082;8.200;2024-01-25T22:20:15;44.90;;;24.38;;
7199;SDS011;3641;49.082;8.200;2024-01-25T22:22:42;49.63;;;25.58;;
7199;SDS011;3641;49.082;8.200;2024-01-25T22:25:08;46.03;;;25.13;;
7199;SDS011;3641;49.082;8.200;2024-01-25T22:27:36;43.30;;;24.20;;
7199;SDS011;3641;49.082;8.200;2024-01-25T22:30:05;49.35;;;25.42;;
7199;SDS011;3641;49.082;8.200;2024-01-25T22:32:32;48.92;;;24.60;;
7199;SDS011;3641;49.082;8.200;2024-01-25T22:34:58;44.97;;;24.58;;
7199;SDS011;3641;49.082;8.200;2024-01-25T22:37:25;51.05;;;26.10;;
7199;SDS011;3641;49.082;8.200;2024-01-25T22:39:51;47.33;;;25.27;;
7199;SDS011;3641;49.082;8.200;2024-01-25T22:42:18;46.88;;;24.67;;
7199;SDS011;3641;49.082;8.200;2024-01-25T22:44:44;49.65;;;26.20;;
7199;SDS011;3641;49.082;8.200;2024-01-25T22:47:12;50.92;;;27.10;;
7199;SDS011;3641;49.082;8.200;2024-01-25T22:49:38;48.55;;;25.90;;
7199;SDS011;3641;49.082;8.200;2024-01-25T22:52:05;50.78;;;27.75;;
7199;SDS011;3641;49.082;8.200;2024-01-25T22:54:31;48.67;;;26.67;;
7199;SDS011;3641;49.082;8.200;2024-01-25T22:56:58;57.72;;;28.65;;
7199;SDS011;3641;49.082;8.200;2024-01-25T22:59:25;54.47;;;28.15;;
7199;SDS011;3641;49.082;8.200;2024-01-25T23:01:52;50.30;;;27.13;;
7199;SDS011;3641;49.082;8.200;2024-01-25T23:04:20;56.60;;;28.20;;
7199;SDS011;3641;49.082;8.200;2024-01-25T23:06:46;54.72;;;28.17;;
7199;SDS011;3641;49.082;8.200;2024-01-25T23:09:13;56.78;;;29.95;;
7199;SDS011;3641;49.082;8.200;2024-01-25T23:11:40;54.67;;;27.95;;
7199;SDS011;3641;49.082;8.200;2024-01-25T23:14:06;59.63;;;29.90;;
7199;SDS011;3641;49.082;8.200;2024-01-25T23:16:33;52.63;;;30.10;;
7199;SDS011;3641;49.082;8.200;2024-01-25T23:18:59;52.25;;;29.85;;
7199;SDS011;3641;49.082;8.200;2024-01-25T23:21:27;52.17;;;29.40;;
7199;SDS011;3641;49.082;8.200;2024-01-25T23:23:56;56.78;;;30.67;;
7199;SDS011;3641;49.082;8.200;2024-01-25T23:26:22;53.63;;;29.60;;
7199;SDS011;3641;49.082;8.200;2024-01-25T23:28:49;55.00;;;30.10;;
7199;SDS011;3641;49.082;8.200;2024-01-25T23:31:15;53.33;;;29.58;;
7199;SDS011;3641;49.082;8.200;2024-01-25T23:33:41;52.83;;;29.27;;
7199;SDS011;3641;49.082;8.200;2024-01-25T23:36:08;49.20;;;28.35;;
7199;SDS011;3641;49.082;8.200;2024-01-25T23:38:36;55.10;;;28.52;;
7199;SDS011;3641;49.082;8.200;2024-01-25T23:41:03;53.22;;;28.88;;
7199;SDS011;3641;49.082;8.200;2024-01-25T23:43:30;48.05;;;29.08;;
7199;SDS011;3641;49.082;8.200;2024-01-25T23:45:56;47.42;;;27.42;;
7199;SDS011;3641;49.082;8.200;2024-01-25T23:48:23;52.85;;;28.60;;
7199;SDS011;3641;49.082;8.200;2024-01-25T23:50:49;48.92;;;26.20;;
7199;SDS011;3641;49.082;8.200;2024-01-25T23:53:15;42.80;;;26.05;;
7199;SDS011;3641;49.082;8.200;2024-01-25T23:55:43;43.03;;;25.15;;
7199;SDS011;3641;49.082;8.200;2024-01-25T23:58:10;42.95;;;24.60;;
